createdAt,value
2023-03-20T00:00:03.292Z,0
2023-03-20T00:05:03.179Z,0
2023-03-20T00:10:03.092Z,0
2023-03-20T00:15:02.848Z,0
2023-03-20T00:20:02.846Z,0
2023-03-20T00:25:02.648Z,0
2023-03-20T00:30:02.462Z,0
2023-03-20T00:35:02.340Z,0
2023-03-20T00:40:03.054Z,0
2023-03-20T00:45:02.888Z,0
2023-03-20T00:50:02.587Z,0
2023-03-20T00:55:04.049Z,0
2023-03-20T01:00:03.165Z,0
2023-03-20T01:05:02.652Z,0
2023-03-20T01:10:02.585Z,0
2023-03-20T01:15:02.538Z,0
2023-03-20T01:20:03.241Z,0
2023-03-20T01:25:03.237Z,0
2023-03-20T01:30:02.928Z,0
2023-03-20T01:35:02.667Z,0
2023-03-20T01:40:02.973Z,0
2023-03-20T01:45:02.957Z,0
2023-03-20T01:50:02.621Z,0
2023-03-20T01:55:03.976Z,0
2023-03-20T02:00:03.236Z,0
2023-03-20T02:05:03.110Z,0
2023-03-20T02:10:02.658Z,0
2023-03-20T02:15:02.875Z,0
2023-03-20T02:20:02.610Z,0
2023-03-20T02:25:02.530Z,0
2023-03-20T02:30:03.201Z,0
2023-03-20T02:35:03.135Z,0
2023-03-20T02:40:02.935Z,0
2023-03-20T02:45:02.592Z,0
2023-03-20T02:50:02.345Z,0
2023-03-20T02:55:03.650Z,0
2023-03-20T03:00:02.755Z,0
2023-03-20T03:05:02.417Z,0
2023-03-20T03:10:03.116Z,0
2023-03-20T03:15:02.788Z,0
2023-03-20T03:20:02.696Z,0
2023-03-20T03:25:02.651Z,0
2023-03-20T03:30:02.550Z,0
2023-03-20T03:35:02.458Z,0
2023-03-20T03:40:02.528Z,0
2023-03-20T03:45:02.530Z,0
2023-03-20T03:50:03.163Z,0
2023-03-20T03:55:03.704Z,0
2023-03-20T04:00:02.764Z,0
2023-03-20T04:05:02.789Z,0
2023-03-20T04:10:03.200Z,0
2023-03-20T04:15:03.830Z,0
2023-03-20T04:20:03.014Z,0
2023-03-20T04:25:02.806Z,0
2023-03-20T04:30:02.549Z,0
2023-03-20T04:35:03.284Z,0
2023-03-20T04:40:03.116Z,0.11
2023-03-20T04:45:02.954Z,0.68
2023-03-20T04:50:03.124Z,1.7
2023-03-20T04:55:03.832Z,4.64
2023-03-20T05:00:02.618Z,9.96
2023-03-20T05:05:03.325Z,8.33
2023-03-20T05:10:03.060Z,16.67
2023-03-20T05:15:02.989Z,30
2023-03-20T05:20:02.627Z,55
2023-03-20T05:25:02.628Z,75
2023-03-20T05:30:03.285Z,108.33
2023-03-20T05:35:03.124Z,165
2023-03-20T05:40:03.087Z,213.33
2023-03-20T05:45:03.011Z,183.33
2023-03-20T05:50:02.785Z,235
2023-03-20T05:55:03.179Z,388.33
2023-03-20T06:00:03.389Z,303.33
2023-03-20T06:05:03.143Z,358.33
2023-03-20T06:10:02.985Z,643.33
2023-03-20T06:15:02.765Z,685
2023-03-20T06:20:02.799Z,550
2023-03-20T06:25:02.722Z,753.33
2023-03-20T06:30:02.619Z,1121.67
2023-03-20T06:35:03.147Z,1805
2023-03-20T06:40:03.248Z,2321.67
2023-03-20T06:45:03.336Z,2206.67
2023-03-20T06:50:03.002Z,2008.33
2023-03-20T07:00:02.678Z,978.33
2023-03-20T07:05:03.771Z,853.33
2023-03-20T07:15:02.774Z,933.33
2023-03-20T07:20:02.504Z,626.67
2023-03-20T07:25:03.153Z,535
2023-03-20T07:30:03.125Z,1126.67
2023-03-20T07:35:02.776Z,1955
2023-03-20T07:40:02.816Z,2245
2023-03-20T07:45:03.363Z,2936.67
2023-03-20T07:50:03.042Z,3881.67
2023-03-20T07:55:03.170Z,3023.33
2023-03-20T08:00:02.538Z,2693.33
2023-03-20T08:05:03.426Z,3346.67
2023-03-20T08:10:03.219Z,2921.67
2023-03-20T08:15:02.792Z,2801.67
2023-03-20T08:20:02.768Z,2583.33
2023-03-20T08:25:02.552Z,2106.67
2023-03-20T08:30:03.376Z,1578.33
2023-03-20T08:35:03.047Z,1296.67
2023-03-20T08:40:03.059Z,1308.33
2023-03-20T08:45:02.573Z,1166.67
2023-03-20T08:50:03.249Z,1168.33
2023-03-20T08:55:03.206Z,1545
2023-03-20T09:00:02.629Z,2683.33
2023-03-20T09:05:03.334Z,9280
2023-03-20T09:10:02.418Z,9181.67
2023-03-20T09:15:03.224Z,7716.67
2023-03-20T09:20:03.090Z,4991.67
2023-03-20T09:25:02.782Z,8208.33
2023-03-20T09:30:02.824Z,9330
2023-03-20T09:35:03.432Z,5775
2023-03-20T09:40:03.074Z,8025
2023-03-20T09:45:03.209Z,7223.33
2023-03-20T09:50:03.515Z,8446.67
2023-03-20T09:55:03.476Z,7966.67
2023-03-20T10:00:02.844Z,8106.67
2023-03-20T10:05:03.089Z,5448.33
2023-03-20T10:10:03.210Z,4820
2023-03-20T10:15:03.199Z,3875
2023-03-20T10:20:02.965Z,3376.67
2023-03-20T10:25:02.725Z,3200
2023-03-20T10:30:02.445Z,3361.67
2023-03-20T10:35:03.215Z,4280
2023-03-20T10:40:03.255Z,3985
2023-03-20T10:45:02.946Z,4366.67
2023-03-20T10:50:02.727Z,4443.33
2023-03-20T10:55:02.944Z,3191.67
2023-03-20T11:00:03.356Z,3610
2023-03-20T11:05:02.974Z,4443.33
2023-03-20T11:10:02.775Z,4363.33
2023-03-20T11:15:02.554Z,4968.33
2023-03-20T11:20:02.405Z,5313.33
2023-03-20T11:25:03.150Z,4556.67
2023-03-20T11:30:02.871Z,3833.33
2023-03-20T11:35:02.603Z,4266.67
2023-03-20T11:40:02.391Z,4763.33
2023-03-20T11:45:03.143Z,5530
2023-03-20T11:50:02.956Z,6105
2023-03-20T11:55:03.830Z,6786.67
2023-03-20T12:00:02.695Z,5925
2023-03-20T12:05:02.413Z,7065
2023-03-20T12:10:03.306Z,6433.33
2023-03-20T12:15:02.953Z,8030
2023-03-20T12:20:02.621Z,4596.67
2023-03-20T12:25:02.524Z,1703.33
2023-03-20T12:30:03.427Z,2385
2023-03-20T12:35:03.167Z,3366.67
2023-03-20T12:45:02.991Z,3353.33
2023-03-20T12:50:02.557Z,3265
2023-03-20T12:55:03.976Z,3563.33
2023-03-20T13:00:03.006Z,4828.33
2023-03-20T13:05:02.809Z,5525
2023-03-20T13:10:02.716Z,4505
2023-03-20T13:15:02.516Z,3226.67
2023-03-20T13:20:03.233Z,3383.33
2023-03-20T13:25:03.044Z,4453.33
2023-03-20T13:30:02.854Z,4883.33
2023-03-20T13:35:02.652Z,4096.67
2023-03-20T13:40:02.579Z,4160
2023-03-20T13:45:02.537Z,4726.67
2023-03-20T13:50:03.171Z,6241.67
2023-03-20T13:55:03.607Z,6366.67
2023-03-20T14:00:02.705Z,5855
2023-03-20T14:05:02.488Z,6553.33
2023-03-20T14:10:02.520Z,6493.33
2023-03-20T14:15:02.593Z,5591.67
2023-03-20T14:20:02.360Z,5728.33
2023-03-20T14:25:03.102Z,5388.33
2023-03-20T14:30:02.923Z,6218.33
2023-03-20T14:35:03.211Z,6438.33
2023-03-20T14:40:02.860Z,5915
2023-03-20T14:45:02.896Z,5310
2023-03-20T14:50:02.573Z,4353.33
2023-03-20T14:55:03.617Z,3678.33
2023-03-20T15:00:03.278Z,4693.33
2023-03-20T15:05:03.166Z,3220
2023-03-20T15:10:02.812Z,2731.67
2023-03-20T15:15:02.637Z,2945
2023-03-20T15:20:03.335Z,3491.67
2023-03-20T15:25:02.939Z,3240
2023-03-20T15:30:02.782Z,1760
2023-03-20T15:35:02.528Z,1363.33
2023-03-20T15:40:03.403Z,1921.67
2023-03-20T15:45:03.084Z,828.33
2023-03-20T15:50:02.932Z,1461.67
2023-03-20T15:55:03.286Z,1763.33
2023-03-20T16:00:03.359Z,765
2023-03-20T16:05:03.236Z,1003.33
2023-03-20T16:10:02.993Z,1153.33
2023-03-20T16:15:02.661Z,723.33
2023-03-20T16:20:02.586Z,963.33
2023-03-20T16:25:03.166Z,781.67
2023-03-20T16:30:02.956Z,918.33
2023-03-20T16:35:02.798Z,965
2023-03-20T16:40:02.641Z,863.33
2023-03-20T16:45:02.375Z,600
2023-03-20T16:50:03.249Z,325
2023-03-20T16:55:03.013Z,281.67
2023-03-20T17:00:03.244Z,163.33
2023-03-20T17:05:03.066Z,128.33
2023-03-20T17:10:03.255Z,163.33
2023-03-20T17:15:03.458Z,138.33
2023-03-20T17:20:02.928Z,130
2023-03-20T17:25:03.015Z,96.67
2023-03-20T17:30:03.084Z,28.33
2023-03-20T17:35:02.664Z,11.67
2023-03-20T17:40:02.386Z,11.77
2023-03-20T17:45:03.130Z,4.75
2023-03-20T17:50:03.020Z,1.81
2023-03-20T17:55:03.282Z,0.68
2023-03-20T18:00:02.983Z,0.23
2023-03-20T18:05:03.067Z,0
2023-03-20T18:10:02.706Z,0
2023-03-20T18:15:02.461Z,0
2023-03-20T18:20:02.524Z,0
2023-03-20T18:25:03.151Z,0
2023-03-20T18:30:02.842Z,0
2023-03-20T18:35:02.496Z,0
2023-03-20T18:40:03.273Z,0
2023-03-20T18:45:03.138Z,0
2023-03-20T18:50:02.931Z,0
2023-03-20T18:55:03.314Z,0
2023-03-20T19:00:02.639Z,0
2023-03-20T19:05:02.434Z,0
2023-03-20T19:10:03.165Z,0
2023-03-20T19:15:02.947Z,0
2023-03-20T19:20:02.709Z,0
2023-03-20T19:25:02.460Z,0
2023-03-20T19:30:03.217Z,0
2023-03-20T19:36:02.132Z,0
2023-03-20T19:40:02.814Z,0
2023-03-20T19:45:02.837Z,0
2023-03-20T19:50:02.602Z,0
2023-03-20T19:55:04.610Z,0
2023-03-20T20:01:15.556Z,0
2023-03-20T20:05:02.910Z,0
2023-03-20T20:10:02.581Z,0
2023-03-20T20:15:03.388Z,0
2023-03-20T20:20:02.366Z,0
2023-03-20T20:25:03.111Z,0
2023-03-20T20:30:02.865Z,0
2023-03-20T20:40:02.912Z,0
2023-03-20T20:45:02.789Z,0
2023-03-20T20:50:02.460Z,0
2023-03-20T20:55:25.084Z,0
2023-03-20T21:00:03.164Z,0
2023-03-20T21:05:02.943Z,0
2023-03-20T21:10:02.737Z,0
2023-03-20T21:15:02.658Z,0
2023-03-20T21:20:02.550Z,0
2023-03-20T21:25:15.391Z,0
2023-03-20T21:30:03.276Z,0
2023-03-20T21:35:02.975Z,0
2023-03-20T21:40:02.659Z,0
2023-03-20T21:46:40.561Z,0
2023-03-20T21:51:20.567Z,0
2023-03-20T22:02:07.001Z,0
2023-03-20T22:06:23.978Z,0
2023-03-20T22:16:33.633Z,0
2023-03-20T22:31:38.966Z,0
2023-03-20T22:45:05.483Z,0
2023-03-20T22:50:03.089Z,0
2023-03-20T22:55:03.600Z,0
2023-03-20T23:00:03.088Z,0
2023-03-20T23:05:02.527Z,0
2023-03-20T23:10:03.280Z,0
2023-03-20T23:15:03.170Z,0
2023-03-20T23:20:14.990Z,0
2023-03-20T23:25:23.755Z,0
2023-03-20T23:30:03.084Z,0
2023-03-20T23:35:02.721Z,0
2023-03-20T23:40:02.823Z,0
2023-03-20T23:45:20.300Z,0
2023-03-20T23:50:03.196Z,0
2023-03-20T23:55:03.782Z,0
